Time;durP1;ratioP1;P1;durP2;ratioP2;P2;SDS_P1;SDS_P2;PMS_P1;PMS_P2;Temp;Humidity;BMP_temperature;BMP_pressure;BME280_temperature;BME280_humidity;BME280_pressure;Samples;Min_cycle;Max_cycle;Signal;HPM_P1;HPM_P2
2021/11/29 00:02:07;;;;;;;11.70;6.72;;;3.80;85.90;;;;;;5081785;28;20192;-83
2021/11/29 00:04:33;;;;;;;12.88;7.90;;;3.80;85.90;;;;;;5082020;28;20203;-84
2021/11/29 00:06:59;;;;;;;10.40;6.77;;;3.90;86.00;;;;;;5082469;28;20206;-84
2021/11/29 00:09:25;;;;;;;13.73;8.33;;;3.90;86.00;;;;;;5100501;28;20474;-83
2021/11/29 00:11:50;;;;;;;10.50;7.60;;;3.90;85.90;;;;;;5082788;28;20410;-83
2021/11/29 00:14:16;;;;;;;16.67;6.80;;;3.90;85.90;;;;;;5100236;28;20465;-85
2021/11/29 00:16:42;;;;;;;16.17;8.30;;;4.00;85.80;;;;;;5089778;28;20184;-82
2021/11/29 00:19:07;;;;;;;10.97;7.20;;;4.00;85.70;;;;;;5082252;28;20715;-83
2021/11/29 00:21:34;;;;;;;15.43;8.03;;;3.80;85.60;;;;;;5081028;28;20176;-83
2021/11/29 00:24:00;;;;;;;14.50;7.55;;;3.70;85.80;;;;;;5099698;28;20237;-83
2021/11/29 00:26:27;;;;;;;9.63;6.45;;;3.70;86.00;;;;;;5100238;28;20230;-84
2021/11/29 00:28:53;;;;;;;11.35;6.47;;;3.60;86.00;;;;;;5098912;28;20171;-83
2021/11/29 00:31:19;;;;;;;11.97;5.53;;;3.70;86.20;;;;;;5089794;28;20484;-83
2021/11/29 00:33:44;;;;;;;10.70;6.03;;;3.60;86.20;;;;;;5089342;28;20450;-83
2021/11/29 00:36:10;;;;;;;7.30;5.13;;;3.70;86.20;;;;;;5081621;28;20421;-83
2021/11/29 00:38:37;;;;;;;17.90;6.83;;;3.70;86.20;;;;;;5116262;28;20417;-83
2021/11/29 00:41:03;;;;;;;11.68;7.20;;;3.70;86.10;;;;;;5081687;28;20996;-83
2021/11/29 00:43:28;;;;;;;12.83;6.03;;;3.80;86.00;;;;;;5081515;28;20235;-83
2021/11/29 00:45:54;;;;;;;10.67;6.57;;;3.70;86.00;;;;;;5100175;28;20422;-84
2021/11/29 00:48:20;;;;;;;17.90;6.53;;;3.60;86.00;;;;;;5099398;28;20175;-84
2021/11/29 00:50:45;;;;;;;14.33;7.13;;;3.70;86.10;;;;;;5105490;28;20190;-81
2021/11/29 00:53:12;;;;;;;14.57;7.03;;;3.50;86.00;;;;;;5074690;28;20279;-82
2021/11/29 00:55:39;;;;;;;10.73;6.55;;;3.50;86.10;;;;;;5085123;28;20200;-81
2021/11/29 00:58:06;;;;;;;13.60;6.40;;;3.60;86.10;;;;;;5099970;28;20179;-83
2021/11/29 01:00:32;;;;;;;10.25;6.55;;;3.50;86.20;;;;;;5084387;28;20182;-80
2021/11/29 01:02:59;;;;;;;9.40;5.90;;;3.50;86.30;;;;;;5099416;28;20200;-81
2021/11/29 01:05:25;;;;;;;7.68;5.60;;;3.40;86.20;;;;;;5088979;28;20203;-81
2021/11/29 01:07:51;;;;;;;8.32;6.13;;;3.40;86.40;;;;;;5116315;28;20183;-81
2021/11/29 01:10:18;;;;;;;20.02;6.40;;;3.40;86.50;;;;;;5081148;28;20225;-82
2021/11/29 01:12:45;;;;;;;12.60;6.18;;;3.30;86.50;;;;;;5080945;28;20204;-82
2021/11/29 01:15:15;;;;;;;8.25;5.32;;;3.30;86.70;;;;;;5080691;28;20215;-81
2021/11/29 01:17:42;;;;;;;8.55;5.65;;;3.30;86.80;;;;;;5081004;28;20180;-80
2021/11/29 01:20:09;;;;;;;8.60;6.18;;;3.20;86.80;;;;;;5090168;28;20541;-81
2021/11/29 01:22:35;;;;;;;11.18;5.35;;;3.20;87.00;;;;;;5099832;28;20191;-81
2021/11/29 01:25:01;;;;;;;9.88;5.60;;;3.20;87.00;;;;;;5080944;28;20320;-81
2021/11/29 01:27:29;;;;;;;8.73;5.40;;;3.20;87.10;;;;;;5106235;28;20172;-81
2021/11/29 01:29:55;;;;;;;9.45;5.18;;;3.30;87.10;;;;;;5109722;28;20180;-81
2021/11/29 01:32:21;;;;;;;12.20;5.07;;;3.30;87.00;;;;;;5107427;28;20202;-81
2021/11/29 01:34:46;;;;;;;6.23;4.27;;;3.40;86.90;;;;;;5090831;28;20457;-81
2021/11/29 01:37:12;;;;;;;7.30;5.07;;;3.50;87.00;;;;;;5095215;28;20429;-82
2021/11/29 01:39:38;;;;;;;6.90;4.40;;;3.50;86.90;;;;;;5095845;28;20187;-82
2021/11/29 01:42:07;;;;;;;10.10;4.53;;;3.50;86.80;;;;;;5096088;28;20513;-82
2021/11/29 01:44:33;;;;;;;5.47;4.13;;;3.60;86.70;;;;;;5085376;28;20584;-81
2021/11/29 01:47:00;;;;;;;7.43;4.03;;;3.60;86.70;;;;;;5091348;28;20268;-82
2021/11/29 01:49:26;;;;;;;6.13;3.78;;;3.50;86.50;;;;;;5059782;28;20422;-82
2021/11/29 01:51:52;;;;;;;9.10;4.03;;;3.60;86.50;;;;;;5089896;28;20187;-81
2021/11/29 01:54:18;;;;;;;4.68;3.00;;;3.60;86.40;;;;;;5097514;28;20437;-82
2021/11/29 01:56:45;;;;;;;4.27;3.23;;;3.60;86.40;;;;;;5080879;28;20526;-83
2021/11/29 01:59:11;;;;;;;5.75;3.80;;;3.60;86.30;;;;;;5113781;28;20428;-81
2021/11/29 02:01:37;;;;;;;7.30;4.27;;;3.60;86.30;;;;;;5097767;28;20184;-82
2021/11/29 02:04:03;;;;;;;8.90;3.97;;;3.60;86.40;;;;;;5108704;28;20496;-81
2021/11/29 02:06:32;;;;;;;3.78;2.15;;;3.60;86.30;;;;;;5090836;28;20418;-83
2021/11/29 02:08:58;;;;;;;3.80;2.10;;;3.70;86.30;;;;;;5066272;28;20336;-82
2021/11/29 02:11:25;;;;;;;4.43;2.08;;;3.70;86.20;;;;;;5097550;28;20206;-82
2021/11/29 02:13:54;;;;;;;8.18;3.05;;;3.80;86.10;;;;;;5097200;28;20206;-82
2021/11/29 02:16:21;;;;;;;4.43;1.83;;;3.80;86.00;;;;;;5079239;28;20194;-82
2021/11/29 02:18:47;;;;;;;5.47;2.63;;;3.90;86.00;;;;;;5097109;28;20665;-82
2021/11/29 02:21:14;;;;;;;4.07;2.03;;;3.90;85.90;;;;;;5078232;28;20180;-82
2021/11/29 02:23:45;;;;;;;5.15;2.08;;;3.90;86.00;;;;;;5077735;28;20216;-81
2021/11/29 02:26:11;;;;;;;3.70;2.50;;;3.90;86.00;;;;;;5078233;28;20612;-82
2021/11/29 02:28:40;;;;;;;4.70;2.28;;;3.90;86.00;;;;;;5089316;28;20183;-82
2021/11/29 02:31:15;;;;;;;4.60;2.45;;;4.00;85.90;;;;;;5081690;28;20186;-81
2021/11/29 02:33:40;;;;;;;7.68;3.63;;;4.00;85.70;;;;;;5086501;28;20203;-81
2021/11/29 02:36:06;;;;;;;4.50;2.80;;;4.00;85.70;;;;;;5077720;28;20187;-81
2021/11/29 02:38:33;;;;;;;12.23;3.70;;;3.90;85.70;;;;;;5086223;28;20439;-82
2021/11/29 02:40:59;;;;;;;6.47;2.65;;;3.80;85.60;;;;;;5096271;28;20504;-82
2021/11/29 02:43:25;;;;;;;3.53;2.53;;;3.70;85.80;;;;;;5095477;28;20217;-82
2021/11/29 02:45:51;;;;;;;4.45;2.60;;;3.70;85.90;;;;;;5105378;28;20180;-82
2021/11/29 02:48:17;;;;;;;2.97;2.35;;;3.70;86.70;;;;;;5093769;28;20179;-84
2021/11/29 02:50:43;;;;;;;8.30;2.80;;;3.60;86.00;;;;;;5080986;28;20197;-83
2021/11/29 02:53:12;;;;;;;5.10;2.50;;;3.60;86.10;;;;;;5096590;28;20401;-84
2021/11/29 02:55:40;;;;;;;6.25;3.70;;;3.50;86.30;;;;;;5081615;28;20195;-82
2021/11/29 02:58:07;;;;;;;8.38;3.97;;;3.60;86.30;;;;;;5076694;28;20389;-84
2021/11/29 03:00:33;;;;;;;7.97;5.60;;;3.60;86.30;;;;;;5095076;28;20192;-84
2021/11/29 03:03:10;;;;;;;7.55;4.40;;;3.70;86.50;;;;;;5094512;28;20184;-83
2021/11/29 03:05:48;;;;;;;6.47;4.38;;;3.70;86.50;;;;;;5095427;28;20199;-83
2021/11/29 03:08:13;;;;;;;6.47;4.40;;;3.80;86.60;;;;;;5097641;28;20168;-83
2021/11/29 03:10:39;;;;;;;7.57;4.60;;;3.80;86.50;;;;;;5100603;28;20202;-83
2021/11/29 03:13:05;;;;;;;9.37;5.60;;;3.70;86.50;;;;;;5082320;28;20306;-83
2021/11/29 03:15:30;;;;;;;11.27;5.33;;;3.70;86.40;;;;;;5090077;28;20562;-84
2021/11/29 03:17:56;;;;;;;8.87;5.80;;;3.70;86.40;;;;;;5109833;28;20200;-83
2021/11/29 03:20:22;;;;;;;7.10;5.00;;;3.70;86.40;;;;;;5091851;28;20268;-83
2021/11/29 03:22:48;;;;;;;8.87;5.80;;;3.80;86.40;;;;;;5097676;28;20176;-84
2021/11/29 03:25:14;;;;;;;9.00;5.70;;;3.70;86.30;;;;;;5096883;28;20466;-82
2021/11/29 03:27:41;;;;;;;9.55;5.53;;;4.00;86.30;;;;;;5093334;28;20234;-82
2021/11/29 03:30:09;;;;;;;8.55;5.53;;;4.00;85.90;;;;;;5086584;28;20658;-83
2021/11/29 03:32:37;;;;;;;9.82;5.20;;;4.10;85.70;;;;;;5093751;28;20182;-83
2021/11/29 03:35:05;;;;;;;10.68;5.40;;;4.20;85.50;;;;;;5112491;28;20213;-83
2021/11/29 03:37:30;;;;;;;10.00;5.10;;;4.10;85.70;;;;;;5113109;28;20172;-83
2021/11/29 03:39:56;;;;;;;7.10;4.90;;;4.10;86.00;;;;;;5103403;28;20206;-84
2021/11/29 03:42:22;;;;;;;9.27;6.43;;;4.10;86.20;;;;;;5093782;28;20251;-82
2021/11/29 03:44:48;;;;;;;7.60;4.10;;;4.20;86.30;;;;;;5093259;28;20226;-83
2021/11/29 03:47:13;;;;;;;12.00;5.57;;;4.20;86.40;;;;;;5120461;28;20184;-83
2021/11/29 03:49:39;;;;;;;10.77;5.43;;;4.20;86.60;;;;;;5101538;28;20176;-82
2021/11/29 03:52:05;;;;;;;15.10;5.17;;;4.20;86.70;;;;;;5118917;28;20180;-82
2021/11/29 03:54:31;;;;;;;12.80;5.00;;;4.30;87.20;;;;;;5094884;28;20203;-83
2021/11/29 03:56:57;;;;;;;11.87;5.30;;;4.30;86.80;;;;;;5097406;28;20456;-83
2021/11/29 03:59:22;;;;;;;6.40;4.57;;;4.30;86.80;;;;;;5097790;28;20218;-83
2021/11/29 04:01:48;;;;;;;7.33;4.30;;;4.30;86.80;;;;;;5126838;28;20489;-83
2021/11/29 04:04:14;;;;;;;10.95;5.78;;;4.20;86.70;;;;;;5108191;28;20472;-82
2021/11/29 04:06:40;;;;;;;14.73;6.33;;;4.10;86.80;;;;;;5110377;28;20192;-82
2021/11/29 04:09:06;;;;;;;15.93;7.00;;;4.00;86.80;;;;;;5101329;28;20406;-82
2021/11/29 04:11:32;;;;;;;13.32;5.38;;;4.10;86.90;;;;;;5100416;28;20247;-82
2021/11/29 04:13:58;;;;;;;15.33;7.00;;;4.10;87.00;;;;;;5092783;28;20273;-83
2021/11/29 04:16:24;;;;;;;19.47;7.97;;;4.00;86.90;;;;;;5082732;28;20418;-83
2021/11/29 04:18:49;;;;;;;13.27;5.97;;;4.00;86.90;;;;;;5082428;28;20207;-82
2021/11/29 04:21:16;;;;;;;10.93;5.03;;;4.00;86.80;;;;;;5103408;28;20437;-82
2021/11/29 04:23:45;;;;;;;10.30;5.40;;;3.90;86.70;;;;;;5081798;28;20976;-83
2021/11/29 04:26:15;;;;;;;8.48;4.22;;;3.90;86.60;;;;;;5100921;28;20176;-82
2021/11/29 04:28:41;;;;;;;7.07;4.65;;;3.80;86.60;;;;;;5099670;28;20200;-83
2021/11/29 04:31:07;;;;;;;7.60;4.70;;;3.80;86.50;;;;;;5088807;28;20241;-84
2021/11/29 04:33:32;;;;;;;7.38;3.75;;;3.80;86.60;;;;;;5081491;28;20556;-83
2021/11/29 04:35:58;;;;;;;19.43;5.87;;;3.70;86.70;;;;;;5090077;28;20180;-83
2021/11/29 04:38:24;;;;;;;12.25;4.20;;;3.70;86.90;;;;;;5081779;28;20182;-83
2021/11/29 04:40:50;;;;;;;9.90;6.13;;;3.70;86.90;;;;;;5102281;28;20240;-82
2021/11/29 04:43:16;;;;;;;11.10;5.50;;;3.60;86.90;;;;;;5093049;28;20180;-83
2021/11/29 04:45:42;;;;;;;10.10;5.53;;;3.60;87.00;;;;;;5090302;28;20216;-82
2021/11/29 04:48:08;;;;;;;13.05;5.38;;;3.60;87.00;;;;;;5081027;28;20553;-83
2021/11/29 04:50:34;;;;;;;7.53;5.10;;;3.60;87.00;;;;;;5100078;28;20595;-83
2021/11/29 04:53:00;;;;;;;9.07;4.72;;;3.60;87.10;;;;;;5114667;28;20270;-83
2021/11/29 04:55:26;;;;;;;7.00;4.63;;;3.60;87.20;;;;;;5089515;28;20247;-83
2021/11/29 04:57:51;;;;;;;10.50;4.70;;;3.50;87.20;;;;;;5092508;28;20854;-83
2021/11/29 05:00:19;;;;;;;8.80;3.93;;;3.50;87.30;;;;;;5102684;28;20650;-82
2021/11/29 05:02:45;;;;;;;8.27;4.20;;;3.40;87.40;;;;;;5083484;28;20183;-82
2021/11/29 05:05:11;;;;;;;8.48;3.63;;;3.40;87.50;;;;;;5102261;28;20258;-83
2021/11/29 05:07:37;;;;;;;9.80;3.97;;;3.50;87.60;;;;;;5102100;28;20191;-83
2021/11/29 05:10:04;;;;;;;4.67;2.83;;;3.50;87.70;;;;;;5089669;28;20184;-82
2021/11/29 05:12:30;;;;;;;6.45;3.45;;;3.40;87.70;;;;;;5081727;28;20184;-83
2021/11/29 05:14:56;;;;;;;5.53;3.30;;;3.50;87.80;;;;;;5099055;28;20714;-82
2021/11/29 05:17:22;;;;;;;6.20;3.80;;;3.40;87.70;;;;;;5095237;28;20242;-83
2021/11/29 05:19:48;;;;;;;5.43;3.40;;;3.40;87.70;;;;;;5102801;28;20427;-83
2021/11/29 05:22:14;;;;;;;13.20;4.37;;;3.40;87.70;;;;;;5081741;28;20179;-83
2021/11/29 05:24:40;;;;;;;6.07;4.20;;;3.40;87.80;;;;;;5104307;28;20462;-83
2021/11/29 05:27:06;;;;;;;11.38;4.15;;;3.30;87.80;;;;;;5080640;28;20201;-83
2021/11/29 05:29:32;;;;;;;8.77;3.67;;;3.30;87.90;;;;;;5093743;28;20171;-82
2021/11/29 05:31:58;;;;;;;7.22;5.00;;;3.30;88.00;;;;;;5083012;28;20190;-81
2021/11/29 05:34:24;;;;;;;12.75;4.22;;;3.40;88.00;;;;;;5097912;28;20208;-83
2021/11/29 05:36:50;;;;;;;10.33;4.83;;;3.40;88.00;;;;;;5114318;28;20182;-82
2021/11/29 05:39:16;;;;;;;5.20;4.13;;;3.40;88.00;;;;;;5094963;28;20427;-83
2021/11/29 05:41:43;;;;;;;5.77;4.20;;;3.50;88.10;;;;;;5092685;28;20520;-83
2021/11/29 05:44:09;;;;;;;5.85;3.97;;;3.50;87.80;;;;;;5081835;28;20847;-83
2021/11/29 05:46:35;;;;;;;4.60;4.20;;;3.50;87.80;;;;;;5079758;28;20187;-83
2021/11/29 05:49:01;;;;;;;5.70;3.90;;;3.50;87.70;;;;;;5098263;28;20172;-83
2021/11/29 05:51:28;;;;;;;10.05;4.60;;;3.50;87.70;;;;;;5101359;28;20423;-82
2021/11/29 05:53:53;;;;;;;8.32;4.05;;;3.50;87.60;;;;;;5100998;28;20195;-83
2021/11/29 05:56:19;;;;;;;6.63;4.80;;;3.40;87.50;;;;;;5078188;28;20710;-83
2021/11/29 05:58:45;;;;;;;6.20;4.33;;;3.40;87.50;;;;;;5076962;28;20658;-82
2021/11/29 06:01:11;;;;;;;5.90;4.30;;;3.30;87.50;;;;;;5086103;28;20436;-85
2021/11/29 06:03:37;;;;;;;6.40;4.23;;;3.30;87.50;;;;;;5094123;28;20199;-83
2021/11/29 06:06:03;;;;;;;5.17;3.50;;;3.30;87.60;;;;;;5096438;28;20194;-83
2021/11/29 06:08:28;;;;;;;6.57;4.30;;;3.30;87.60;;;;;;5100709;28;20421;-83
2021/11/29 06:10:54;;;;;;;9.40;5.90;;;3.40;87.60;;;;;;5096319;28;20496;-83
2021/11/29 06:13:20;;;;;;;12.27;7.90;;;3.40;87.60;;;;;;5095493;28;20412;-84
2021/11/29 06:15:46;;;;;;;17.47;7.93;;;3.40;87.60;;;;;;5102306;28;20434;-83
2021/11/29 06:18:12;;;;;;;11.43;9.57;;;3.40;87.60;;;;;;5086642;28;20180;-83
2021/11/29 06:20:37;;;;;;;12.53;9.00;;;3.50;87.60;;;;;;5094976;28;20422;-82
2021/11/29 06:23:04;;;;;;;13.90;9.20;;;3.60;87.40;;;;;;5077116;28;20413;-83
2021/11/29 06:25:30;;;;;;;19.52;15.88;;;3.60;87.40;;;;;;5078715;28;20454;-81
2021/11/29 06:27:56;;;;;;;12.65;9.07;;;3.70;87.40;;;;;;5078238;28;20176;-81
2021/11/29 06:30:24;;;;;;;18.83;10.23;;;3.70;87.40;;;;;;5077786;28;20195;-80
2021/11/29 06:32:50;;;;;;;14.90;8.10;;;3.70;87.20;;;;;;5097643;28;20171;-82
2021/11/29 06:35:17;;;;;;;23.23;9.93;;;3.70;87.00;;;;;;5088993;28;20199;-81
2021/11/29 06:37:48;;;;;;;13.98;9.43;;;3.80;86.90;;;;;;5097288;28;20188;-81
2021/11/29 06:40:14;;;;;;;20.48;9.50;;;3.80;86.70;;;;;;5079682;28;20172;-82
2021/11/29 06:42:40;;;;;;;29.42;9.23;;;3.70;86.60;;;;;;5080362;28;20228;-82
2021/11/29 06:45:07;;;;;;;24.90;10.85;;;3.80;86.50;;;;;;5078293;28;20207;-81
2021/11/29 06:47:32;;;;;;;41.70;13.57;;;3.90;86.40;;;;;;5098384;28;20187;-82
2021/11/29 06:49:58;;;;;;;49.07;14.80;;;3.90;86.30;;;;;;5088436;28;20316;-83
2021/11/29 06:52:24;;;;;;;47.90;15.73;;;3.80;86.10;;;;;;5080030;28;20284;-82
2021/11/29 06:54:50;;;;;;;56.47;15.30;;;3.80;86.10;;;;;;5081141;28;20446;-82
2021/11/29 06:57:17;;;;;;;59.85;14.15;;;3.80;86.20;;;;;;5067738;28;20437;-82
2021/11/29 06:59:46;;;;;;;58.95;14.95;;;3.70;86.20;;;;;;5084994;28;20812;-83
2021/11/29 07:02:13;;;;;;;47.22;12.75;;;3.60;86.10;;;;;;5103125;28;20246;-82
2021/11/29 07:04:39;;;;;;;44.38;12.35;;;3.70;86.10;;;;;;5102211;28;20608;-83
2021/11/29 07:07:06;;;;;;;29.92;10.80;;;3.70;86.20;;;;;;5103732;28;20176;-81
2021/11/29 07:09:32;;;;;;;45.45;13.80;;;3.60;86.10;;;;;;5085244;28;20639;-82
2021/11/29 07:11:58;;;;;;;55.95;14.70;;;3.70;86.10;;;;;;5084917;28;20188;-82
2021/11/29 07:14:25;;;;;;;45.90;14.40;;;3.80;86.00;;;;;;5110051;28;20207;-83
2021/11/29 07:16:50;;;;;;;40.72;12.52;;;3.80;86.00;;;;;;5089011;28;20453;-82
2021/11/29 07:19:16;;;;;;;34.17;11.37;;;3.70;85.80;;;;;;5091044;28;20192;-83
2021/11/29 07:21:44;;;;;;;44.15;12.55;;;3.70;85.80;;;;;;5085089;28;20206;-83
2021/11/29 07:24:10;;;;;;;37.25;11.75;;;3.70;85.80;;;;;;5069187;28;20265;-82
2021/11/29 07:26:42;;;;;;;32.72;10.93;;;3.60;85.70;;;;;;5088271;28;20190;-82
2021/11/29 07:29:07;;;;;;;36.58;10.45;;;3.70;85.80;;;;;;5089845;28;20703;-82
2021/11/29 07:31:33;;;;;;;41.58;10.93;;;3.70;85.80;;;;;;5085724;28;20204;-82
2021/11/29 07:34:00;;;;;;;27.98;9.95;;;3.70;85.70;;;;;;5083936;28;20671;-82
2021/11/29 07:36:26;;;;;;;35.85;8.40;;;3.70;85.70;;;;;;5084313;28;20187;-82
2021/11/29 07:38:51;;;;;;;30.75;9.73;;;3.50;85.60;;;;;;5083934;28;20552;-82
2021/11/29 07:41:17;;;;;;;19.60;7.13;;;3.60;85.60;;;;;;5084292;28;20255;-82
2021/11/29 07:43:43;;;;;;;26.03;8.53;;;3.60;85.70;;;;;;5101586;28;20237;-82
2021/11/29 07:46:09;;;;;;;36.13;8.10;;;3.60;85.70;;;;;;5102440;28;20168;-82
2021/11/29 07:48:34;;;;;;;43.10;10.00;;;3.70;85.70;;;;;;5084478;28;20414;-82
2021/11/29 07:51:00;;;;;;;30.80;9.67;;;3.80;85.80;;;;;;5084334;28;20585;-82
2021/11/29 07:53:27;;;;;;;44.47;10.97;;;3.80;85.80;;;;;;5083937;28;20410;-82
2021/11/29 07:55:53;;;;;;;38.80;9.50;;;3.70;85.70;;;;;;5102423;28;20211;-82
2021/11/29 07:58:21;;;;;;;44.20;10.70;;;3.80;85.70;;;;;;5084009;28;20183;-82
2021/11/29 08:00:47;;;;;;;24.50;9.60;;;3.80;85.60;;;;;;5084589;28;20172;-82
2021/11/29 08:03:12;;;;;;;39.90;10.80;;;3.80;85.50;;;;;;5084607;28;20188;-82
2021/11/29 08:05:39;;;;;;;33.73;9.83;;;3.80;85.50;;;;;;5084653;28;20263;-82
2021/11/29 08:08:07;;;;;;;37.72;10.70;;;4.10;85.60;;;;;;5103414;28;20530;-82
2021/11/29 08:10:34;;;;;;;25.00;10.55;;;4.00;85.30;;;;;;5085356;28;20191;-82
2021/11/29 08:13:02;;;;;;;37.10;9.18;;;4.00;85.40;;;;;;5084513;28;20267;-82
2021/11/29 08:15:28;;;;;;;28.88;11.07;;;4.10;85.50;;;;;;5103273;28;20215;-82
2021/11/29 08:17:54;;;;;;;40.10;10.85;;;4.10;85.40;;;;;;5084486;28;20565;-82
2021/11/29 08:20:24;;;;;;;28.13;10.43;;;4.20;86.00;;;;;;5084657;28;20172;-82
2021/11/29 08:22:50;;;;;;;28.40;8.98;;;4.40;85.20;;;;;;5084357;28;20184;-82
2021/11/29 08:25:16;;;;;;;27.50;9.80;;;4.40;85.10;;;;;;5083292;28;20243;-83
2021/11/29 08:27:43;;;;;;;34.00;9.60;;;4.40;85.00;;;;;;5083627;28;20183;-82
2021/11/29 08:30:12;;;;;;;26.75;8.00;;;4.40;85.40;;;;;;5083818;28;20896;-82
2021/11/29 08:32:39;;;;;;;26.52;10.05;;;4.40;84.40;;;;;;5102072;28;20176;-82
2021/11/29 08:35:05;;;;;;;29.15;8.48;;;4.40;84.20;;;;;;5083775;28;20209;-82
2021/11/29 08:37:31;;;;;;;21.77;8.15;;;4.40;84.00;;;;;;5084673;28;20231;-82
2021/11/29 08:39:57;;;;;;;23.63;7.63;;;4.40;83.80;;;;;;5084060;28;20666;-82
2021/11/29 08:42:23;;;;;;;25.27;8.07;;;4.50;83.80;;;;;;5083658;28;20180;-82
2021/11/29 08:44:48;;;;;;;16.37;6.73;;;4.50;83.50;;;;;;5101149;28;20591;-82
2021/11/29 08:47:14;;;;;;;13.30;5.67;;;4.60;83.20;;;;;;5082774;28;20862;-82
2021/11/29 08:49:43;;;;;;;13.53;5.40;;;4.60;82.80;;;;;;5084142;28;20413;-82
2021/11/29 08:52:10;;;;;;;10.75;5.60;;;4.40;82.20;;;;;;5102153;28;20164;-82
2021/11/29 08:54:39;;;;;;;9.70;3.90;;;4.50;82.00;;;;;;5082920;28;20246;-83
2021/11/29 08:57:05;;;;;;;13.68;5.60;;;4.50;81.80;;;;;;5083369;28;20268;-82
2021/11/29 08:59:31;;;;;;;9.57;4.50;;;4.40;81.40;;;;;;5084016;28;20509;-83
2021/11/29 09:01:58;;;;;;;14.40;5.27;;;4.40;81.30;;;;;;5083405;28;20214;-83
2021/11/29 09:04:24;;;;;;;8.48;4.75;;;4.50;81.40;;;;;;5083326;28;20241;-83
2021/11/29 09:06:49;;;;;;;17.15;4.60;;;4.60;81.50;;;;;;5086153;28;20187;-82
2021/11/29 09:09:15;;;;;;;12.70;5.30;;;4.70;81.50;;;;;;5089948;28;20188;-83
2021/11/29 09:11:42;;;;;;;14.52;3.80;;;4.70;81.40;;;;;;5105517;28;20176;-82
2021/11/29 09:14:07;;;;;;;11.82;3.33;;;4.70;81.20;;;;;;5078260;28;20215;-82
2021/11/29 09:16:33;;;;;;;13.67;4.80;;;4.90;81.10;;;;;;5081899;28;20524;-83
2021/11/29 09:18:59;;;;;;;20.40;5.70;;;4.90;80.90;;;;;;5083255;28;20172;-83
2021/11/29 09:21:25;;;;;;;10.85;4.43;;;5.00;80.60;;;;;;5084966;28;20444;-83
2021/11/29 09:23:51;;;;;;;8.63;5.13;;;5.00;80.40;;;;;;5103680;28;20290;-82
2021/11/29 09:26:17;;;;;;;18.38;5.43;;;5.10;80.30;;;;;;5087904;28;20439;-83
2021/11/29 09:28:43;;;;;;;17.65;5.85;;;5.00;79.80;;;;;;5116420;28;20172;-83
2021/11/29 09:31:10;;;;;;;16.13;5.60;;;5.00;80.40;;;;;;5099434;28;20187;-82
2021/11/29 09:33:36;;;;;;;27.33;7.25;;;5.00;79.50;;;;;;5095675;28;20203;-81
2021/11/29 09:36:03;;;;;;;17.25;6.38;;;5.00;79.20;;;;;;5078047;28;20206;-83
2021/11/29 09:38:29;;;;;;;19.38;6.82;;;5.00;79.20;;;;;;5082882;28;20183;-83
2021/11/29 09:40:55;;;;;;;22.33;7.27;;;5.00;79.50;;;;;;5099516;28;20182;-83
2021/11/29 09:43:21;;;;;;;17.60;5.78;;;5.40;79.70;;;;;;5081923;28;20417;-82
2021/11/29 09:45:51;;;;;;;25.15;7.28;;;5.60;79.40;;;;;;5083036;28;20179;-83
2021/11/29 09:48:18;;;;;;;23.83;6.10;;;5.70;79.20;;;;;;5083236;28;20172;-83
2021/11/29 09:50:47;;;;;;;19.30;5.85;;;5.70;79.00;;;;;;5082859;28;20631;-83
2021/11/29 09:53:18;;;;;;;20.70;6.72;;;5.60;78.80;;;;;;5082187;28;20179;-83
2021/11/29 09:55:44;;;;;;;15.35;5.75;;;5.70;78.80;;;;;;5065869;28;20207;-82
2021/11/29 09:58:11;;;;;;;17.73;6.20;;;5.80;78.60;;;;;;5083179;28;20210;-82
2021/11/29 10:00:40;;;;;;;14.88;5.22;;;5.80;78.50;;;;;;5083515;28;20172;-82
2021/11/29 10:03:07;;;;;;;29.90;6.50;;;5.80;78.20;;;;;;5101731;28;20503;-82
2021/11/29 10:05:35;;;;;;;25.58;6.05;;;5.90;78.10;;;;;;5085859;28;20215;-83
2021/11/29 10:08:16;;;;;;;23.67;6.60;;;6.00;77.70;;;;;;5086995;28;20615;-84
2021/11/29 10:10:48;;;;;;;24.20;6.32;;;5.90;77.40;;;;;;5112890;28;20172;-84
2021/11/29 10:13:14;;;;;;;22.10;5.47;;;5.80;77.30;;;;;;5098932;28;20166;-83
2021/11/29 10:15:41;;;;;;;16.95;4.53;;;5.70;77.20;;;;;;5098471;28;20219;-83
2021/11/29 10:18:19;;;;;;;7.60;4.70;;;5.80;77.00;;;;;;5097333;28;20176;-83
2021/11/29 10:21:07;;;;;;;16.60;4.22;;;5.80;76.90;;;;;;5082447;28;20191;-84
2021/11/29 10:23:42;;;;;;;18.80;4.38;;;5.80;76.90;;;;;;5097951;28;20168;-84
2021/11/29 10:26:17;;;;;;;21.20;4.75;;;5.70;76.90;;;;;;5080228;28;20251;-84
2021/11/29 10:28:55;;;;;;;9.63;3.45;;;5.60;77.00;;;;;;5080101;28;20170;-84
2021/11/29 10:31:25;;;;;;;12.75;4.20;;;5.60;77.20;;;;;;5085872;28;20594;-83
2021/11/29 10:34:17;;;;;;;13.43;3.33;;;5.70;77.40;;;;;;5086726;28;20309;-83
2021/11/29 10:36:58;;;;;;;22.02;3.90;;;5.70;77.30;;;;;;5105664;28;20179;-83
2021/11/29 10:39:32;;;;;;;8.70;2.90;;;5.80;77.30;;;;;;5105818;28;20305;-83
2021/11/29 10:42:01;;;;;;;10.05;2.88;;;5.80;77.10;;;;;;5087657;28;20650;-84
2021/11/29 10:44:30;;;;;;;9.02;2.95;;;5.80;77.10;;;;;;5089158;28;20211;-83
2021/11/29 10:47:02;;;;;;;4.75;2.00;;;5.70;76.90;;;;;;5108150;28;20252;-83
2021/11/29 10:49:31;;;;;;;10.20;3.65;;;5.70;76.80;;;;;;5089083;28;20168;-83
2021/11/29 10:51:59;;;;;;;11.70;3.00;;;5.90;76.90;;;;;;5088103;28;20179;-83
2021/11/29 10:54:31;;;;;;;7.55;2.80;;;5.90;76.60;;;;;;5105509;28;20225;-83
2021/11/29 10:56:58;;;;;;;11.35;2.83;;;6.00;76.50;;;;;;5104556;28;20163;-83
2021/11/29 10:59:29;;;;;;;4.28;1.88;;;5.90;76.40;;;;;;5103944;28;20175;-83
2021/11/29 11:01:58;;;;;;;10.48;3.00;;;6.00;76.20;;;;;;5085754;28;20548;-84
2021/11/29 11:04:30;;;;;;;7.25;2.67;;;6.10;76.10;;;;;;5084894;28;20203;-83
2021/11/29 11:07:01;;;;;;;6.63;2.15;;;6.00;76.00;;;;;;5085236;28;20182;-83
2021/11/29 11:09:33;;;;;;;5.53;2.58;;;6.20;76.10;;;;;;5103161;28;20156;-83
2021/11/29 11:12:14;;;;;;;10.25;1.77;;;6.10;75.70;;;;;;5085361;28;20176;-84
2021/11/29 11:14:42;;;;;;;9.07;3.00;;;6.30;75.40;;;;;;5085065;28;20211;-83
2021/11/29 11:17:12;;;;;;;6.22;2.80;;;6.40;75.00;;;;;;5105245;28;20176;-83
2021/11/29 11:19:40;;;;;;;7.68;2.30;;;6.50;74.60;;;;;;5104510;28;20194;-83
2021/11/29 11:22:28;;;;;;;5.93;1.92;;;6.60;73.60;;;;;;5087724;28;20218;-83
2021/11/29 11:25:12;;;;;;;9.13;2.10;;;6.90;73.80;;;;;;5086971;28;20216;-83
2021/11/29 11:27:52;;;;;;;21.35;3.13;;;7.10;73.00;;;;;;5096388;28;20243;-83
2021/11/29 11:30:19;;;;;;;8.90;2.00;;;7.20;71.70;;;;;;5107124;28;20653;-83
2021/11/29 11:32:54;;;;;;;3.65;1.50;;;7.20;69.40;;;;;;5072733;28;20190;-83
2021/11/29 11:35:27;;;;;;;4.20;2.15;;;7.30;68.00;;;;;;5088662;28;20208;-82
2021/11/29 11:38:02;;;;;;;5.22;2.08;;;7.40;64.60;;;;;;5088107;28;20654;-83
2021/11/29 11:40:31;;;;;;;8.38;1.35;;;7.50;63.40;;;;;;5087073;28;20264;-82
2021/11/29 11:42:58;;;;;;;4.38;1.30;;;7.50;62.70;;;;;;5102676;28;20171;-83
2021/11/29 11:45:29;;;;;;;2.70;1.88;;;7.50;63.90;;;;;;5084586;28;20219;-82
2021/11/29 11:47:58;;;;;;;7.90;1.67;;;7.60;65.00;;;;;;5103228;28;20191;-82
2021/11/29 11:50:27;;;;;;;4.90;1.30;;;7.60;65.70;;;;;;5085022;28;20175;-82
2021/11/29 11:52:54;;;;;;;9.80;1.70;;;7.70;66.10;;;;;;5068304;28;20244;-83
2021/11/29 11:55:31;;;;;;;2.30;1.23;;;7.60;66.00;;;;;;5084179;28;20206;-83
2021/11/29 11:57:57;;;;;;;10.88;1.42;;;7.70;66.40;;;;;;5082806;28;20210;-83
2021/11/29 12:00:44;;;;;;;6.32;1.60;;;7.80;66.00;;;;;;5084082;28;20186;-83
2021/11/29 12:03:24;;;;;;;3.35;1.50;;;7.70;65.90;;;;;;5082944;28;20180;-83
2021/11/29 12:05:51;;;;;;;15.23;1.85;;;7.70;66.10;;;;;;5084108;28;20182;-83
2021/11/29 12:08:39;;;;;;;6.55;1.50;;;7.80;66.50;;;;;;5084473;28;20179;-84
2021/11/29 12:11:35;;;;;;;7.80;1.50;;;8.00;65.50;;;;;;5104231;28;20172;-82
2021/11/29 12:14:19;;;;;;;9.10;2.08;;;7.90;64.20;;;;;;5103803;28;20278;-83
2021/11/29 12:16:49;;;;;;;9.73;2.42;;;7.90;63.70;;;;;;5102718;28;20182;-82
2021/11/29 12:19:24;;;;;;;8.13;1.55;;;8.00;63.20;;;;;;5068636;28;20290;-82
2021/11/29 12:21:55;;;;;;;11.07;1.50;;;8.00;62.10;;;;;;5105152;28;20242;-82
2021/11/29 12:24:26;;;;;;;4.70;1.77;;;8.00;62.90;;;;;;5092925;28;20203;-83
2021/11/29 12:27:01;;;;;;;6.85;1.40;;;8.00;61.70;;;;;;5115574;28;20228;-82
2021/11/29 12:29:26;;;;;;;6.20;1.73;;;8.00;59.90;;;;;;5097478;28;20190;-82
2021/11/29 12:32:01;;;;;;;4.27;1.27;;;8.00;59.30;;;;;;5111030;28;20167;-83
2021/11/29 12:34:51;;;;;;;8.55;1.60;;;8.00;59.50;;;;;;5102794;28;20187;-83
2021/11/29 12:37:40;;;;;;;11.25;2.50;;;8.00;59.80;;;;;;5086860;28;20188;-83
2021/11/29 12:40:15;;;;;;;6.18;1.70;;;8.00;60.60;;;;;;5084149;28;20173;-83
2021/11/29 12:42:42;;;;;;;7.38;1.60;;;8.00;60.70;;;;;;5083494;28;20179;-83
2021/11/29 12:45:08;;;;;;;5.88;1.42;;;8.00;59.40;;;;;;5084462;28;20686;-83
2021/11/29 12:47:47;;;;;;;8.63;1.50;;;7.90;58.70;;;;;;5082676;28;20180;-83
2021/11/29 12:50:33;;;;;;;5.45;1.35;;;7.90;58.30;;;;;;5080840;28;20175;-82
2021/11/29 12:53:12;;;;;;;6.05;1.45;;;7.90;58.50;;;;;;5096444;28;20661;-83
2021/11/29 12:55:39;;;;;;;10.20;1.70;;;7.80;59.00;;;;;;5079960;28;20639;-83